sensor_id;sensor_type;location;lat;lon;timestamp;P1;durP1;ratioP1;P2;durP2;ratioP2
18296;SDS011;18066;52.106;5.534;2022-09-09T00:00:44;1.98;;;1.13;;
18296;SDS011;18066;52.106;5.534;2022-09-09T00:03:16;1.95;;;1.30;;
18296;SDS011;18066;52.106;5.534;2022-09-09T00:05:48;2.10;;;1.20;;
18296;SDS011;18066;52.106;5.534;2022-09-09T00:08:22;1.77;;;1.20;;
18296;SDS011;18066;52.106;5.534;2022-09-09T00:10:59;2.95;;;1.52;;
18296;SDS011;18066;52.106;5.534;2022-09-09T00:13:30;2.70;;;1.20;;
18296;SDS011;18066;52.106;5.534;2022-09-09T00:16:03;2.72;;;1.38;;
18296;SDS011;18066;52.106;5.534;2022-09-09T00:18:39;3.30;;;1.65;;
18296;SDS011;18066;52.106;5.534;2022-09-09T00:21:11;2.40;;;1.38;;
18296;SDS011;18066;52.106;5.534;2022-09-09T00:23:43;1.85;;;1.40;;
18296;SDS011;18066;52.106;5.534;2022-09-09T00:26:14;1.33;;;1.20;;
18296;SDS011;18066;52.106;5.534;2022-09-09T00:28:48;1.60;;;1.40;;
18296;SDS011;18066;52.106;5.534;2022-09-09T00:31:23;1.40;;;1.30;;
18296;SDS011;18066;52.106;5.534;2022-09-09T00:33:52;5.05;;;1.65;;
18296;SDS011;18066;52.106;5.534;2022-09-09T00:36:22;4.13;;;1.77;;
18296;SDS011;18066;52.106;5.534;2022-09-09T00:38:55;4.60;;;1.83;;
18296;SDS011;18066;52.106;5.534;2022-09-09T00:41:25;3.92;;;2.05;;
18296;SDS011;18066;52.106;5.534;2022-09-09T00:44:03;2.15;;;1.70;;
18296;SDS011;18066;52.106;5.534;2022-09-09T00:46:51;2.05;;;1.67;;
18296;SDS011;18066;52.106;5.534;2022-09-09T00:49:29;4.82;;;1.80;;
18296;SDS011;18066;52.106;5.534;2022-09-09T00:52:12;4.25;;;2.10;;
18296;SDS011;18066;52.106;5.534;2022-09-09T00:54:51;3.33;;;2.17;;
18296;SDS011;18066;52.106;5.534;2022-09-09T00:57:23;3.15;;;2.50;;
18296;SDS011;18066;52.106;5.534;2022-09-09T00:59:56;4.68;;;2.97;;
18296;SDS011;18066;52.106;5.534;2022-09-09T01:02:31;6.30;;;3.10;;
18296;SDS011;18066;52.106;5.534;2022-09-09T01:05:05;4.78;;;2.70;;
18296;SDS011;18066;52.106;5.534;2022-09-09T01:07:39;4.45;;;3.03;;
18296;SDS011;18066;52.106;5.534;2022-09-09T01:10:12;4.65;;;3.40;;
18296;SDS011;18066;52.106;5.534;2022-09-09T01:12:50;4.75;;;2.70;;
18296;SDS011;18066;52.106;5.534;2022-09-09T01:15:20;4.60;;;3.15;;
18296;SDS011;18066;52.106;5.534;2022-09-09T01:17:52;4.97;;;3.05;;
18296;SDS011;18066;52.106;5.534;2022-09-09T01:20:24;4.72;;;3.03;;
18296;SDS011;18066;52.106;5.534;2022-09-09T01:23:04;4.15;;;3.13;;
18296;SDS011;18066;52.106;5.534;2022-09-09T01:28:42;4.40;;;3.13;;
18296;SDS011;18066;52.106;5.534;2022-09-09T01:31:11;6.15;;;3.50;;
18296;SDS011;18066;52.106;5.534;2022-09-09T01:33:41;3.22;;;2.80;;
18296;SDS011;18066;52.106;5.534;2022-09-09T01:36:08;3.20;;;2.90;;
18296;SDS011;18066;52.106;5.534;2022-09-09T01:38:38;4.90;;;3.05;;
18296;SDS011;18066;52.106;5.534;2022-09-09T01:41:05;5.35;;;2.95;;
18296;SDS011;18066;52.106;5.534;2022-09-09T01:43:34;5.30;;;3.03;;
18296;SDS011;18066;52.106;5.534;2022-09-09T01:46:01;9.43;;;3.05;;
18296;SDS011;18066;52.106;5.534;2022-09-09T01:48:28;4.40;;;3.03;;
18296;SDS011;18066;52.106;5.534;2022-09-09T01:50:55;8.23;;;2.97;;
18296;SDS011;18066;52.106;5.534;2022-09-09T01:53:22;4.43;;;2.95;;
18296;SDS011;18066;52.106;5.534;2022-09-09T01:55:52;5.95;;;2.75;;
18296;SDS011;18066;52.106;5.534;2022-09-09T01:58:29;3.17;;;2.75;;
18296;SDS011;18066;52.106;5.534;2022-09-09T02:01:09;5.53;;;2.70;;
18296;SDS011;18066;52.106;5.534;2022-09-09T02:03:47;3.50;;;2.47;;
18296;SDS011;18066;52.106;5.534;2022-09-09T02:06:22;3.13;;;2.42;;
18296;SDS011;18066;52.106;5.534;2022-09-09T02:08:56;5.40;;;2.88;;
18296;SDS011;18066;52.106;5.534;2022-09-09T02:11:26;3.92;;;2.80;;
18296;SDS011;18066;52.106;5.534;2022-09-09T02:13:57;4.03;;;2.58;;
18296;SDS011;18066;52.106;5.534;2022-09-09T02:16:28;4.88;;;2.55;;
18296;SDS011;18066;52.106;5.534;2022-09-09T02:19:00;4.70;;;3.08;;
18296;SDS011;18066;52.106;5.534;2022-09-09T02:21:30;4.70;;;2.67;;
18296;SDS011;18066;52.106;5.534;2022-09-09T02:24:00;3.08;;;2.50;;
18296;SDS011;18066;52.106;5.534;2022-09-09T02:26:30;2.85;;;2.55;;
18296;SDS011;18066;52.106;5.534;2022-09-09T02:29:01;3.25;;;2.58;;
18296;SDS011;18066;52.106;5.534;2022-09-09T02:31:31;3.97;;;2.60;;
18296;SDS011;18066;52.106;5.534;2022-09-09T02:34:01;3.35;;;2.50;;
18296;SDS011;18066;52.106;5.534;2022-09-09T02:36:31;6.38;;;2.90;;
18296;SDS011;18066;52.106;5.534;2022-09-09T02:39:00;4.13;;;2.60;;
18296;SDS011;18066;52.106;5.534;2022-09-09T02:41:28;3.38;;;2.83;;
18296;SDS011;18066;52.106;5.534;2022-09-09T02:43:58;4.45;;;2.67;;
18296;SDS011;18066;52.106;5.534;2022-09-09T02:46:30;3.03;;;2.72;;
18296;SDS011;18066;52.106;5.534;2022-09-09T02:49:06;6.15;;;3.33;;
18296;SDS011;18066;52.106;5.534;2022-09-09T02:51:38;5.45;;;2.88;;
18296;SDS011;18066;52.106;5.534;2022-09-09T02:54:14;3.97;;;3.15;;
18296;SDS011;18066;52.106;5.534;2022-09-09T02:56:47;3.47;;;2.70;;
18296;SDS011;18066;52.106;5.534;2022-09-09T02:59:19;6.22;;;3.30;;
18296;SDS011;18066;52.106;5.534;2022-09-09T03:01:47;7.90;;;3.33;;
18296;SDS011;18066;52.106;5.534;2022-09-09T03:04:14;4.95;;;3.70;;
18296;SDS011;18066;52.106;5.534;2022-09-09T03:06:40;4.15;;;2.80;;
18296;SDS011;18066;52.106;5.534;2022-09-09T03:09:08;4.93;;;3.45;;
18296;SDS011;18066;52.106;5.534;2022-09-09T03:11:35;10.77;;;3.70;;
18296;SDS011;18066;52.106;5.534;2022-09-09T03:14:03;5.55;;;3.50;;
18296;SDS011;18066;52.106;5.534;2022-09-09T03:16:30;5.75;;;2.97;;
18296;SDS011;18066;52.106;5.534;2022-09-09T03:18:59;5.15;;;3.40;;
18296;SDS011;18066;52.106;5.534;2022-09-09T03:21:26;6.93;;;3.65;;
18296;SDS011;18066;52.106;5.534;2022-09-09T03:23:52;4.75;;;3.47;;
18296;SDS011;18066;52.106;5.534;2022-09-09T03:26:19;4.40;;;3.40;;
18296;SDS011;18066;52.106;5.534;2022-09-09T03:28:46;5.40;;;3.22;;
18296;SDS011;18066;52.106;5.534;2022-09-09T03:31:13;6.15;;;3.05;;
18296;SDS011;18066;52.106;5.534;2022-09-09T03:33:39;4.35;;;3.20;;
18296;SDS011;18066;52.106;5.534;2022-09-09T03:36:08;5.38;;;3.00;;
18296;SDS011;18066;52.106;5.534;2022-09-09T03:38:35;3.45;;;2.80;;
18296;SDS011;18066;52.106;5.534;2022-09-09T03:41:02;3.63;;;2.83;;
18296;SDS011;18066;52.106;5.534;2022-09-09T03:43:31;3.53;;;2.90;;
18296;SDS011;18066;52.106;5.534;2022-09-09T03:45:58;4.20;;;2.75;;
18296;SDS011;18066;52.106;5.534;2022-09-09T03:48:25;4.47;;;3.10;;
18296;SDS011;18066;52.106;5.534;2022-09-09T03:50:53;4.13;;;3.00;;
18296;SDS011;18066;52.106;5.534;2022-09-09T03:53:22;5.75;;;3.30;;
18296;SDS011;18066;52.106;5.534;2022-09-09T03:55:52;4.32;;;2.83;;
18296;SDS011;18066;52.106;5.534;2022-09-09T03:58:20;6.30;;;3.40;;
18296;SDS011;18066;52.106;5.534;2022-09-09T04:00:52;7.65;;;3.38;;
18296;SDS011;18066;52.106;5.534;2022-09-09T04:03:21;4.78;;;3.50;;
18296;SDS011;18066;52.106;5.534;2022-09-09T04:05:49;4.50;;;3.00;;
18296;SDS011;18066;52.106;5.534;2022-09-09T04:08:16;4.03;;;3.25;;
18296;SDS011;18066;52.106;5.534;2022-09-09T04:10:46;4.22;;;3.22;;
18296;SDS011;18066;52.106;5.534;2022-09-09T04:13:13;5.57;;;3.28;;
18296;SDS011;18066;52.106;5.534;2022-09-09T04:15:42;3.88;;;2.95;;
18296;SDS011;18066;52.106;5.534;2022-09-09T04:18:10;4.15;;;2.85;;
18296;SDS011;18066;52.106;5.534;2022-09-09T04:20:37;4.10;;;3.05;;
18296;SDS011;18066;52.106;5.534;2022-09-09T04:23:04;4.43;;;3.47;;
18296;SDS011;18066;52.106;5.534;2022-09-09T04:25:31;6.18;;;3.63;;
18296;SDS011;18066;52.106;5.534;2022-09-09T04:28:00;3.65;;;3.33;;
18296;SDS011;18066;52.106;5.534;2022-09-09T04:30:27;4.55;;;3.22;;
18296;SDS011;18066;52.106;5.534;2022-09-09T04:32:54;4.28;;;3.30;;
18296;SDS011;18066;52.106;5.534;2022-09-09T04:35:21;3.92;;;3.50;;
18296;SDS011;18066;52.106;5.534;2022-09-09T04:37:48;3.65;;;3.15;;
18296;SDS011;18066;52.106;5.534;2022-09-09T04:40:15;6.55;;;3.10;;
18296;SDS011;18066;52.106;5.534;2022-09-09T04:42:41;4.07;;;2.85;;
18296;SDS011;18066;52.106;5.534;2022-09-09T04:45:10;8.75;;;4.05;;
18296;SDS011;18066;52.106;5.534;2022-09-09T04:47:38;5.13;;;3.30;;
18296;SDS011;18066;52.106;5.534;2022-09-09T04:50:06;4.07;;;3.30;;
18296;SDS011;18066;52.106;5.534;2022-09-09T04:52:33;7.82;;;3.42;;
18296;SDS011;18066;52.106;5.534;2022-09-09T04:55:00;3.15;;;2.85;;
18296;SDS011;18066;52.106;5.534;2022-09-09T04:57:27;6.90;;;3.25;;
18296;SDS011;18066;52.106;5.534;2022-09-09T04:59:56;3.40;;;3.10;;
18296;SDS011;18066;52.106;5.534;2022-09-09T05:02:25;3.78;;;2.90;;
18296;SDS011;18066;52.106;5.534;2022-09-09T05:04:51;4.00;;;3.28;;
18296;SDS011;18066;52.106;5.534;2022-09-09T05:07:19;6.75;;;3.42;;
18296;SDS011;18066;52.106;5.534;2022-09-09T05:09:45;6.82;;;3.40;;
18296;SDS011;18066;52.106;5.534;2022-09-09T05:12:14;7.00;;;3.00;;
18296;SDS011;18066;52.106;5.534;2022-09-09T05:14:41;7.13;;;3.00;;
18296;SDS011;18066;52.106;5.534;2022-09-09T05:17:09;4.57;;;2.97;;
18296;SDS011;18066;52.106;5.534;2022-09-09T05:19:37;7.45;;;2.90;;
18296;SDS011;18066;52.106;5.534;2022-09-09T05:22:04;4.32;;;2.72;;
18296;SDS011;18066;52.106;5.534;2022-09-09T05:24:31;4.93;;;2.78;;
18296;SDS011;18066;52.106;5.534;2022-09-09T05:26:58;4.93;;;2.80;;
18296;SDS011;18066;52.106;5.534;2022-09-09T05:29:27;5.22;;;2.75;;
18296;SDS011;18066;52.106;5.534;2022-09-09T05:31:54;6.43;;;3.20;;
18296;SDS011;18066;52.106;5.534;2022-09-09T05:34:20;10.15;;;3.00;;
18296;SDS011;18066;52.106;5.534;2022-09-09T05:36:48;9.07;;;2.78;;
18296;SDS011;18066;52.106;5.534;2022-09-09T05:39:16;7.85;;;3.63;;
18296;SDS011;18066;52.106;5.534;2022-09-09T05:41:42;4.97;;;2.92;;
18296;SDS011;18066;52.106;5.534;2022-09-09T05:44:09;7.35;;;2.60;;
18296;SDS011;18066;52.106;5.534;2022-09-09T05:46:36;7.35;;;2.75;;
18296;SDS011;18066;52.106;5.534;2022-09-09T05:49:03;5.35;;;2.80;;
18296;SDS011;18066;52.106;5.534;2022-09-09T05:51:31;7.30;;;3.13;;
18296;SDS011;18066;52.106;5.534;2022-09-09T05:53:59;3.63;;;2.78;;
18296;SDS011;18066;52.106;5.534;2022-09-09T05:56:26;6.85;;;2.65;;
18296;SDS011;18066;52.106;5.534;2022-09-09T05:58:55;5.07;;;2.38;;
18296;SDS011;18066;52.106;5.534;2022-09-09T06:01:23;5.25;;;3.05;;
18296;SDS011;18066;52.106;5.534;2022-09-09T06:03:51;4.97;;;2.88;;
18296;SDS011;18066;52.106;5.534;2022-09-09T06:06:19;7.75;;;2.72;;
18296;SDS011;18066;52.106;5.534;2022-09-09T06:08:47;5.63;;;2.63;;
18296;SDS011;18066;52.106;5.534;2022-09-09T06:11:18;5.00;;;3.05;;
18296;SDS011;18066;52.106;5.534;2022-09-09T06:13:46;8.90;;;3.50;;
18296;SDS011;18066;52.106;5.534;2022-09-09T06:16:16;3.95;;;2.40;;
18296;SDS011;18066;52.106;5.534;2022-09-09T06:18:44;6.55;;;2.80;;
18296;SDS011;18066;52.106;5.534;2022-09-09T06:21:13;6.10;;;3.22;;
18296;SDS011;18066;52.106;5.534;2022-09-09T06:23:42;4.43;;;2.58;;
18296;SDS011;18066;52.106;5.534;2022-09-09T06:26:10;9.85;;;3.35;;
18296;SDS011;18066;52.106;5.534;2022-09-09T06:28:39;6.57;;;2.95;;
18296;SDS011;18066;52.106;5.534;2022-09-09T06:31:08;7.20;;;3.35;;
18296;SDS011;18066;52.106;5.534;2022-09-09T06:33:36;6.32;;;2.60;;
18296;SDS011;18066;52.106;5.534;2022-09-09T06:36:06;5.85;;;3.00;;
18296;SDS011;18066;52.106;5.534;2022-09-09T06:38:36;9.38;;;3.28;;
18296;SDS011;18066;52.106;5.534;2022-09-09T06:41:03;6.70;;;2.67;;
18296;SDS011;18066;52.106;5.534;2022-09-09T06:43:30;7.70;;;2.85;;
18296;SDS011;18066;52.106;5.534;2022-09-09T06:46:00;6.20;;;2.55;;
18296;SDS011;18066;52.106;5.534;2022-09-09T06:48:28;10.35;;;3.00;;
18296;SDS011;18066;52.106;5.534;2022-09-09T06:51:01;7.80;;;2.67;;
18296;SDS011;18066;52.106;5.534;2022-09-09T06:53:29;9.70;;;2.45;;
18296;SDS011;18066;52.106;5.534;2022-09-09T06:55:58;9.88;;;3.08;;
18296;SDS011;18066;52.106;5.534;2022-09-09T06:58:26;7.03;;;3.10;;
18296;SDS011;18066;52.106;5.534;2022-09-09T07:00:53;6.68;;;2.40;;
18296;SDS011;18066;52.106;5.534;2022-09-09T07:03:28;6.45;;;2.75;;
18296;SDS011;18066;52.106;5.534;2022-09-09T07:05:55;7.70;;;2.90;;
18296;SDS011;18066;52.106;5.534;2022-09-09T07:08:22;8.32;;;3.15;;
18296;SDS011;18066;52.106;5.534;2022-09-09T07:10:49;8.85;;;2.35;;
18296;SDS011;18066;52.106;5.534;2022-09-09T07:13:18;6.18;;;3.30;;
18296;SDS011;18066;52.106;5.534;2022-09-09T07:15:46;7.13;;;2.55;;
18296;SDS011;18066;52.106;5.534;2022-09-09T07:18:14;7.35;;;2.63;;
18296;SDS011;18066;52.106;5.534;2022-09-09T07:20:40;8.32;;;2.67;;
18296;SDS011;18066;52.106;5.534;2022-09-09T07:23:07;11.52;;;2.30;;
18296;SDS011;18066;52.106;5.534;2022-09-09T07:25:34;10.23;;;3.08;;
18296;SDS011;18066;52.106;5.534;2022-09-09T07:28:01;9.98;;;2.33;;
18296;SDS011;18066;52.106;5.534;2022-09-09T07:30:28;6.10;;;2.60;;
18296;SDS011;18066;52.106;5.534;2022-09-09T07:32:54;6.43;;;2.60;;
18296;SDS011;18066;52.106;5.534;2022-09-09T07:35:24;10.30;;;2.88;;
18296;SDS011;18066;52.106;5.534;2022-09-09T07:37:51;10.15;;;2.50;;
18296;SDS011;18066;52.106;5.534;2022-09-09T07:40:18;9.40;;;2.60;;
18296;SDS011;18066;52.106;5.534;2022-09-09T07:42:46;6.80;;;2.67;;
18296;SDS011;18066;52.106;5.534;2022-09-09T07:45:13;9.32;;;2.58;;
18296;SDS011;18066;52.106;5.534;2022-09-09T07:47:40;7.50;;;2.53;;
18296;SDS011;18066;52.106;5.534;2022-09-09T07:50:07;9.25;;;2.85;;
18296;SDS011;18066;52.106;5.534;2022-09-09T07:52:38;5.43;;;2.22;;
18296;SDS011;18066;52.106;5.534;2022-09-09T07:55:05;8.20;;;2.50;;
18296;SDS011;18066;52.106;5.534;2022-09-09T07:57:32;5.40;;;2.50;;
18296;SDS011;18066;52.106;5.534;2022-09-09T07:59:58;6.22;;;2.03;;
18296;SDS011;18066;52.106;5.534;2022-09-09T08:02:25;8.52;;;2.60;;
18296;SDS011;18066;52.106;5.534;2022-09-09T08:04:54;6.70;;;2.20;;
18296;SDS011;18066;52.106;5.534;2022-09-09T08:07:21;6.38;;;2.47;;
18296;SDS011;18066;52.106;5.534;2022-09-09T08:09:49;9.35;;;3.00;;
18296;SDS011;18066;52.106;5.534;2022-09-09T08:12:16;7.15;;;2.30;;
18296;SDS011;18066;52.106;5.534;2022-09-09T08:14:43;8.18;;;2.70;;
18296;SDS011;18066;52.106;5.534;2022-09-09T08:17:10;7.30;;;2.40;;
18296;SDS011;18066;52.106;5.534;2022-09-09T08:19:36;6.63;;;2.00;;
18296;SDS011;18066;52.106;5.534;2022-09-09T08:22:03;3.15;;;1.63;;
18296;SDS011;18066;52.106;5.534;2022-09-09T08:24:30;7.68;;;2.20;;
18296;SDS011;18066;52.106;5.534;2022-09-09T08:26:58;6.90;;;2.42;;
18296;SDS011;18066;52.106;5.534;2022-09-09T08:29:24;10.23;;;2.42;;
18296;SDS011;18066;52.106;5.534;2022-09-09T08:31:53;7.20;;;2.53;;
18296;SDS011;18066;52.106;5.534;2022-09-09T08:34:22;8.77;;;2.38;;
18296;SDS011;18066;52.106;5.534;2022-09-09T08:36:52;5.40;;;1.98;;
18296;SDS011;18066;52.106;5.534;2022-09-09T08:39:20;9.27;;;2.28;;
18296;SDS011;18066;52.106;5.534;2022-09-09T08:42:01;7.82;;;2.35;;
18296;SDS011;18066;52.106;5.534;2022-09-09T08:47:42;7.45;;;1.95;;
18296;SDS011;18066;52.106;5.534;2022-09-09T08:50:19;6.72;;;1.90;;
18296;SDS011;18066;52.106;5.534;2022-09-09T08:52:53;4.53;;;1.83;;
18296;SDS011;18066;52.106;5.534;2022-09-09T08:55:27;9.80;;;1.80;;
18296;SDS011;18066;52.106;5.534;2022-09-09T08:58:04;3.78;;;1.52;;
18296;SDS011;18066;52.106;5.534;2022-09-09T09:00:39;7.80;;;1.90;;
18296;SDS011;18066;52.106;5.534;2022-09-09T09:03:15;9.00;;;2.20;;
18296;SDS011;18066;52.106;5.534;2022-09-09T09:05:51;7.35;;;1.80;;
18296;SDS011;18066;52.106;5.534;2022-09-09T09:08:26;4.85;;;1.67;;
18296;SDS011;18066;52.106;5.534;2022-09-09T09:10:59;9.23;;;2.08;;
18296;SDS011;18066;52.106;5.534;2022-09-09T09:13:30;11.07;;;2.10;;
18296;SDS011;18066;52.106;5.534;2022-09-09T09:16:06;10.10;;;1.90;;
18296;SDS011;18066;52.106;5.534;2022-09-09T09:18:41;5.47;;;1.95;;
18296;SDS011;18066;52.106;5.534;2022-09-09T09:21:08;7.65;;;2.13;;
18296;SDS011;18066;52.106;5.534;2022-09-09T09:23:41;5.97;;;1.95;;
18296;SDS011;18066;52.106;5.534;2022-09-09T09:26:15;8.32;;;1.95;;
18296;SDS011;18066;52.106;5.534;2022-09-09T09:28:45;6.78;;;2.20;;
18296;SDS011;18066;52.106;5.534;2022-09-09T09:31:12;5.20;;;1.90;;
18296;SDS011;18066;52.106;5.534;2022-09-09T09:33:42;6.97;;;1.77;;
18296;SDS011;18066;52.106;5.534;2022-09-09T09:36:14;9.13;;;1.98;;
18296;SDS011;18066;52.106;5.534;2022-09-09T09:38:51;7.88;;;1.98;;
18296;SDS011;18066;52.106;5.534;2022-09-09T09:41:28;10.45;;;2.00;;
18296;SDS011;18066;52.106;5.534;2022-09-09T09:43:58;5.28;;;2.03;;
18296;SDS011;18066;52.106;5.534;2022-09-09T09:46:26;7.45;;;1.63;;
18296;SDS011;18066;52.106;5.534;2022-09-09T09:48:57;10.70;;;2.70;;
18296;SDS011;18066;52.106;5.534;2022-09-09T09:51:25;10.65;;;2.10;;
18296;SDS011;18066;52.106;5.534;2022-09-09T09:53:53;8.02;;;1.65;;
18296;SDS011;18066;52.106;5.534;2022-09-09T09:56:26;5.65;;;1.30;;
18296;SDS011;18066;52.106;5.534;2022-09-09T09:58:54;7.85;;;2.17;;
18296;SDS011;18066;52.106;5.534;2022-09-09T10:01:23;9.35;;;2.08;;
18296;SDS011;18066;52.106;5.534;2022-09-09T10:03:52;4.85;;;1.70;;
18296;SDS011;18066;52.106;5.534;2022-09-09T10:06:29;7.35;;;1.90;;
18296;SDS011;18066;52.106;5.534;2022-09-09T10:08:57;3.88;;;1.58;;
18296;SDS011;18066;52.106;5.534;2022-09-09T10:11:27;8.95;;;2.20;;
18296;SDS011;18066;52.106;5.534;2022-09-09T10:14:03;10.75;;;2.28;;
18296;SDS011;18066;52.106;5.534;2022-09-09T10:16:40;6.00;;;1.77;;
18296;SDS011;18066;52.106;5.534;2022-09-09T10:19:18;6.97;;;2.00;;
18296;SDS011;18066;52.106;5.534;2022-09-09T10:21:57;6.30;;;1.50;;
18296;SDS011;18066;52.106;5.534;2022-09-09T10:24:44;10.45;;;2.17;;
18296;SDS011;18066;52.106;5.534;2022-09-09T10:27:37;4.85;;;1.45;;
18296;SDS011;18066;52.106;5.534;2022-09-09T10:30:13;10.45;;;2.28;;
18296;SDS011;18066;52.106;5.534;2022-09-09T10:32:48;8.85;;;2.58;;
18296;SDS011;18066;52.106;5.534;2022-09-09T10:35:30;7.93;;;1.85;;
18296;SDS011;18066;52.106;5.534;2022-09-09T10:38:15;4.75;;;1.60;;
18296;SDS011;18066;52.106;5.534;2022-09-09T10:40:48;16.40;;;2.22;;
18296;SDS011;18066;52.106;5.534;2022-09-09T10:43:31;10.13;;;1.92;;
18296;SDS011;18066;52.106;5.534;2022-09-09T10:46:10;7.50;;;2.38;;
18296;SDS011;18066;52.106;5.534;2022-09-09T10:48:48;7.85;;;2.05;;
18296;SDS011;18066;52.106;5.534;2022-09-09T10:51:28;6.03;;;1.77;;
18296;SDS011;18066;52.106;5.534;2022-09-09T10:54:10;4.95;;;1.80;;
18296;SDS011;18066;52.106;5.534;2022-09-09T10:56:48;8.82;;;2.20;;
18296;SDS011;18066;52.106;5.534;2022-09-09T10:59:20;6.03;;;1.88;;
18296;SDS011;18066;52.106;5.534;2022-09-09T11:01:51;5.45;;;1.95;;
18296;SDS011;18066;52.106;5.534;2022-09-09T11:04:25;5.68;;;1.67;;
18296;SDS011;18066;52.106;5.534;2022-09-09T11:06:57;7.38;;;2.50;;
18296;SDS011;18066;52.106;5.534;2022-09-09T11:09:30;10.90;;;2.10;;
18296;SDS011;18066;52.106;5.534;2022-09-09T11:12:02;8.73;;;2.40;;
18296;SDS011;18066;52.106;5.534;2022-09-09T11:14:29;5.78;;;2.60;;
18296;SDS011;18066;52.106;5.534;2022-09-09T11:17:00;4.07;;;2.00;;
18296;SDS011;18066;52.106;5.534;2022-09-09T11:19:32;6.93;;;2.50;;
18296;SDS011;18066;52.106;5.534;2022-09-09T11:22:02;4.07;;;2.13;;
18296;SDS011;18066;52.106;5.534;2022-09-09T11:24:33;7.00;;;2.50;;
18296;SDS011;18066;52.106;5.534;2022-09-09T11:27:06;8.52;;;2.35;;
18296;SDS011;18066;52.106;5.534;2022-09-09T11:32:34;9.65;;;3.10;;
18296;SDS011;18066;52.106;5.534;2022-09-09T11:35:21;7.28;;;2.08;;
18296;SDS011;18066;52.106;5.534;2022-09-09T11:40:43;9.35;;;2.08;;
18296;SDS011;18066;52.106;5.534;2022-09-09T11:43:12;6.30;;;2.10;;
18296;SDS011;18066;52.106;5.534;2022-09-09T11:45:41;7.25;;;2.50;;
18296;SDS011;18066;52.106;5.534;2022-09-09T11:48:22;8.27;;;2.17;;
18296;SDS011;18066;52.106;5.534;2022-09-09T11:50:58;6.90;;;2.35;;
18296;SDS011;18066;52.106;5.534;2022-09-09T11:53:27;11.32;;;1.98;;
18296;SDS011;18066;52.106;5.534;2022-09-09T11:56:02;7.30;;;2.45;;
18296;SDS011;18066;52.106;5.534;2022-09-09T11:58:33;4.40;;;2.17;;
18296;SDS011;18066;52.106;5.534;2022-09-09T12:01:15;6.75;;;2.40;;
18296;SDS011;18066;52.106;5.534;2022-09-09T12:04:04;6.90;;;2.30;;
18296;SDS011;18066;52.106;5.534;2022-09-09T12:06:43;4.38;;;1.70;;
18296;SDS011;18066;52.106;5.534;2022-09-09T12:09:16;8.13;;;2.30;;
18296;SDS011;18066;52.106;5.534;2022-09-09T12:11:48;5.85;;;1.58;;
18296;SDS011;18066;52.106;5.534;2022-09-09T12:14:19;10.68;;;1.85;;
18296;SDS011;18066;52.106;5.534;2022-09-09T12:16:47;6.20;;;2.40;;
18296;SDS011;18066;52.106;5.534;2022-09-09T12:19:15;4.47;;;1.75;;
18296;SDS011;18066;52.106;5.534;2022-09-09T12:21:46;4.28;;;1.80;;
18296;SDS011;18066;52.106;5.534;2022-09-09T12:24:19;4.65;;;1.70;;
18296;SDS011;18066;52.106;5.534;2022-09-09T12:26:55;5.97;;;2.42;;
18296;SDS011;18066;52.106;5.534;2022-09-09T12:29:27;4.97;;;1.80;;
18296;SDS011;18066;52.106;5.534;2022-09-09T12:32:04;7.63;;;2.35;;
18296;SDS011;18066;52.106;5.534;2022-09-09T12:34:35;6.00;;;2.15;;
18296;SDS011;18066;52.106;5.534;2022-09-09T12:37:08;8.50;;;2.28;;
18296;SDS011;18066;52.106;5.534;2022-09-09T12:39:44;6.53;;;2.25;;
18296;SDS011;18066;52.106;5.534;2022-09-09T12:42:16;5.68;;;2.08;;
18296;SDS011;18066;52.106;5.534;2022-09-09T12:44:50;4.78;;;2.15;;
18296;SDS011;18066;52.106;5.534;2022-09-09T12:47:18;6.63;;;2.30;;
18296;SDS011;18066;52.106;5.534;2022-09-09T12:49:47;5.45;;;2.25;;
18296;SDS011;18066;52.106;5.534;2022-09-09T12:52:19;6.30;;;2.25;;
18296;SDS011;18066;52.106;5.534;2022-09-09T12:54:49;3.83;;;2.00;;
18296;SDS011;18066;52.106;5.534;2022-09-09T12:57:18;4.53;;;1.83;;
18296;SDS011;18066;52.106;5.534;2022-09-09T12:59:45;5.03;;;1.95;;
18296;SDS011;18066;52.106;5.534;2022-09-09T13:02:20;8.02;;;2.45;;
18296;SDS011;18066;52.106;5.534;2022-09-09T13:04:48;7.95;;;2.20;;
18296;SDS011;18066;52.106;5.534;2022-09-09T13:07:18;4.45;;;2.00;;
18296;SDS011;18066;52.106;5.534;2022-09-09T13:09:45;5.82;;;2.17;;
18296;SDS011;18066;52.106;5.534;2022-09-09T13:12:14;3.15;;;2.00;;
18296;SDS011;18066;52.106;5.534;2022-09-09T13:14:45;3.63;;;1.52;;
18296;SDS011;18066;52.106;5.534;2022-09-09T13:17:18;7.03;;;2.00;;
18296;SDS011;18066;52.106;5.534;2022-09-09T13:19:46;8.95;;;1.90;;
18296;SDS011;18066;52.106;5.534;2022-09-09T13:22:19;5.15;;;1.83;;
18296;SDS011;18066;52.106;5.534;2022-09-09T13:24:58;5.53;;;2.20;;
18296;SDS011;18066;52.106;5.534;2022-09-09T13:27:28;6.68;;;2.30;;
18296;SDS011;18066;52.106;5.534;2022-09-09T13:29:57;5.13;;;1.88;;
18296;SDS011;18066;52.106;5.534;2022-09-09T13:32:24;5.28;;;1.90;;
18296;SDS011;18066;52.106;5.534;2022-09-09T13:34:53;8.73;;;2.45;;
18296;SDS011;18066;52.106;5.534;2022-09-09T13:37:24;7.63;;;2.50;;
18296;SDS011;18066;52.106;5.534;2022-09-09T13:39:55;5.18;;;1.98;;
18296;SDS011;18066;52.106;5.534;2022-09-09T13:42:24;4.28;;;2.20;;
18296;SDS011;18066;52.106;5.534;2022-09-09T13:44:52;6.82;;;2.50;;
18296;SDS011;18066;52.106;5.534;2022-09-09T13:47:21;6.72;;;2.30;;
18296;SDS011;18066;52.106;5.534;2022-09-09T13:49:54;6.10;;;2.30;;
18296;SDS011;18066;52.106;5.534;2022-09-09T13:52:21;7.75;;;2.45;;
18296;SDS011;18066;52.106;5.534;2022-09-09T13:54:51;8.00;;;2.38;;
18296;SDS011;18066;52.106;5.534;2022-09-09T13:57:20;9.25;;;1.85;;
18296;SDS011;18066;52.106;5.534;2022-09-09T13:59:50;5.70;;;2.25;;
18296;SDS011;18066;52.106;5.534;2022-09-09T14:02:18;8.82;;;2.15;;
18296;SDS011;18066;52.106;5.534;2022-09-09T14:04:46;6.60;;;2.10;;
18296;SDS011;18066;52.106;5.534;2022-09-09T14:07:16;6.97;;;2.20;;
18296;SDS011;18066;52.106;5.534;2022-09-09T14:09:45;5.53;;;2.78;;
18296;SDS011;18066;52.106;5.534;2022-09-09T14:12:14;3.53;;;1.95;;
18296;SDS011;18066;52.106;5.534;2022-09-09T14:14:41;6.70;;;2.50;;
18296;SDS011;18066;52.106;5.534;2022-09-09T14:17:08;4.50;;;2.00;;
18296;SDS011;18066;52.106;5.534;2022-09-09T14:19:35;9.30;;;2.13;;
18296;SDS011;18066;52.106;5.534;2022-09-09T14:22:03;6.63;;;2.13;;
18296;SDS011;18066;52.106;5.534;2022-09-09T14:24:29;8.43;;;1.98;;
18296;SDS011;18066;52.106;5.534;2022-09-09T14:26:57;4.25;;;2.08;;
18296;SDS011;18066;52.106;5.534;2022-09-09T14:29:24;6.20;;;2.13;;
18296;SDS011;18066;52.106;5.534;2022-09-09T14:31:51;7.80;;;2.00;;
18296;SDS011;18066;52.106;5.534;2022-09-09T14:34:18;9.07;;;2.03;;
18296;SDS011;18066;52.106;5.534;2022-09-09T14:36:45;3.92;;;1.58;;
18296;SDS011;18066;52.106;5.534;2022-09-09T14:39:11;5.40;;;2.28;;
18296;SDS011;18066;52.106;5.534;2022-09-09T14:41:38;5.65;;;1.77;;
18296;SDS011;18066;52.106;5.534;2022-09-09T14:44:06;4.13;;;2.10;;
18296;SDS011;18066;52.106;5.534;2022-09-09T14:46:34;8.20;;;2.58;;
18296;SDS011;18066;52.106;5.534;2022-09-09T14:49:00;4.15;;;1.88;;
18296;SDS011;18066;52.106;5.534;2022-09-09T14:51:27;5.05;;;1.75;;
18296;SDS011;18066;52.106;5.534;2022-09-09T14:53:54;4.47;;;1.70;;
18296;SDS011;18066;52.106;5.534;2022-09-09T14:56:24;4.40;;;1.65;;
18296;SDS011;18066;52.106;5.534;2022-09-09T14:58:52;1.77;;;1.60;;
18296;SDS011;18066;52.106;5.534;2022-09-09T15:01:21;6.03;;;2.03;;
18296;SDS011;18066;52.106;5.534;2022-09-09T15:03:49;6.65;;;2.10;;
18296;SDS011;18066;52.106;5.534;2022-09-09T15:06:17;7.15;;;1.92;;
18296;SDS011;18066;52.106;5.534;2022-09-09T15:08:45;6.07;;;2.28;;
18296;SDS011;18066;52.106;5.534;2022-09-09T15:11:13;4.47;;;1.65;;
18296;SDS011;18066;52.106;5.534;2022-09-09T15:13:41;5.88;;;1.73;;
18296;SDS011;18066;52.106;5.534;2022-09-09T15:16:09;3.40;;;1.75;;
18296;SDS011;18066;52.106;5.534;2022-09-09T15:18:39;3.55;;;1.80;;